sensor_id;sensor_type;location;lat;lon;timestamp;temperature;humidity
20231;DHT22;10274;49.022;9.338;2022-09-03T00:02:08;18.70;1.00
20231;DHT22;10274;49.022;9.338;2022-09-03T00:04:48;18.80;1.00
20231;DHT22;10274;49.022;9.338;2022-09-03T00:07:20;18.80;1.00
20231;DHT22;10274;49.022;9.338;2022-09-03T00:09:54;18.80;1.00
20231;DHT22;10274;49.022;9.338;2022-09-03T00:12:25;18.90;1.00
20231;DHT22;10274;49.022;9.338;2022-09-03T00:14:56;18.90;1.00
20231;DHT22;10274;49.022;9.338;2022-09-03T00:17:28;18.90;1.00
20231;DHT22;10274;49.022;9.338;2022-09-03T00:20:00;18.90;1.00
20231;DHT22;10274;49.022;9.338;2022-09-03T00:22:31;18.90;1.00
20231;DHT22;10274;49.022;9.338;2022-09-03T00:25:02;18.90;1.00
20231;DHT22;10274;49.022;9.338;2022-09-03T00:27:32;18.90;1.00
20231;DHT22;10274;49.022;9.338;2022-09-03T00:30:07;18.80;1.00
20231;DHT22;10274;49.022;9.338;2022-09-03T00:32:39;18.80;1.00
20231;DHT22;10274;49.022;9.338;2022-09-03T00:35:13;18.80;1.00
20231;DHT22;10274;49.022;9.338;2022-09-03T00:37:41;18.80;1.00
20231;DHT22;10274;49.022;9.338;2022-09-03T00:40:17;18.80;1.00
20231;DHT22;10274;49.022;9.338;2022-09-03T00:42:56;18.80;1.00
20231;DHT22;10274;49.022;9.338;2022-09-03T00:45:32;18.80;1.00
20231;DHT22;10274;49.022;9.338;2022-09-03T00:48:08;18.80;1.00
20231;DHT22;10274;49.022;9.338;2022-09-03T00:50:48;18.70;1.00
20231;DHT22;10274;49.022;9.338;2022-09-03T00:53:25;18.80;1.00
20231;DHT22;10274;49.022;9.338;2022-09-03T00:55:59;18.80;1.00
20231;DHT22;10274;49.022;9.338;2022-09-03T00:58:41;18.70;1.00
20231;DHT22;10274;49.022;9.338;2022-09-03T01:01:15;18.70;1.00
20231;DHT22;10274;49.022;9.338;2022-09-03T01:03:52;18.70;1.00
20231;DHT22;10274;49.022;9.338;2022-09-03T01:06:26;18.80;1.00
20231;DHT22;10274;49.022;9.338;2022-09-03T01:09:04;18.80;1.00
20231;DHT22;10274;49.022;9.338;2022-09-03T01:11:41;18.80;1.00
20231;DHT22;10274;49.022;9.338;2022-09-03T01:14:20;18.60;1.00
20231;DHT22;10274;49.022;9.338;2022-09-03T01:16:53;18.40;1.00
20231;DHT22;10274;49.022;9.338;2022-09-03T01:19:39;18.40;1.00
20231;DHT22;10274;49.022;9.338;2022-09-03T01:25:15;18.30;1.00
20231;DHT22;10274;49.022;9.338;2022-09-03T01:28:01;18.30;1.00
20231;DHT22;10274;49.022;9.338;2022-09-03T01:30:34;18.50;1.00
20231;DHT22;10274;49.022;9.338;2022-09-03T01:33:09;18.60;1.00
20231;DHT22;10274;49.022;9.338;2022-09-03T01:35:45;18.50;1.00
20231;DHT22;10274;49.022;9.338;2022-09-03T01:38:20;18.50;1.00
20231;DHT22;10274;49.022;9.338;2022-09-03T01:40:56;18.60;1.00
20231;DHT22;10274;49.022;9.338;2022-09-03T01:43:54;18.50;1.00
20231;DHT22;10274;49.022;9.338;2022-09-03T01:46:24;18.60;1.00
20231;DHT22;10274;49.022;9.338;2022-09-03T01:48:56;18.70;1.00
20231;DHT22;10274;49.022;9.338;2022-09-03T01:51:28;18.70;1.00
20231;DHT22;10274;49.022;9.338;2022-09-03T01:54:19;18.60;1.00
20231;DHT22;10274;49.022;9.338;2022-09-03T01:57:04;18.60;1.00
20231;DHT22;10274;49.022;9.338;2022-09-03T01:59:39;18.50;1.00
20231;DHT22;10274;49.022;9.338;2022-09-03T02:02:12;18.60;1.00
20231;DHT22;10274;49.022;9.338;2022-09-03T02:04:56;18.60;1.00
20231;DHT22;10274;49.022;9.338;2022-09-03T02:07:25;18.60;1.00
20231;DHT22;10274;49.022;9.338;2022-09-03T02:09:53;18.60;1.00
20231;DHT22;10274;49.022;9.338;2022-09-03T02:12:19;18.70;1.00
20231;DHT22;10274;49.022;9.338;2022-09-03T02:14:48;18.60;1.00
20231;DHT22;10274;49.022;9.338;2022-09-03T02:17:15;18.60;1.00
20231;DHT22;10274;49.022;9.338;2022-09-03T02:19:42;18.50;1.00
20231;DHT22;10274;49.022;9.338;2022-09-03T02:22:09;18.50;1.00
20231;DHT22;10274;49.022;9.338;2022-09-03T02:24:37;18.40;1.00
20231;DHT22;10274;49.022;9.338;2022-09-03T02:27:04;18.40;1.00
20231;DHT22;10274;49.022;9.338;2022-09-03T02:29:31;18.40;1.00
20231;DHT22;10274;49.022;9.338;2022-09-03T02:32:00;18.40;1.00
20231;DHT22;10274;49.022;9.338;2022-09-03T02:34:26;18.40;1.00
20231;DHT22;10274;49.022;9.338;2022-09-03T02:36:53;18.40;1.00
20231;DHT22;10274;49.022;9.338;2022-09-03T02:39:20;18.50;1.00
20231;DHT22;10274;49.022;9.338;2022-09-03T02:41:50;18.50;1.00
20231;DHT22;10274;49.022;9.338;2022-09-03T02:44:22;18.50;1.00
20231;DHT22;10274;49.022;9.338;2022-09-03T02:46:56;18.40;1.00
20231;DHT22;10274;49.022;9.338;2022-09-03T02:49:24;18.40;1.00
20231;DHT22;10274;49.022;9.338;2022-09-03T02:51:56;18.40;1.00
20231;DHT22;10274;49.022;9.338;2022-09-03T02:56:48;18.30;1.00
20231;DHT22;10274;49.022;9.338;2022-09-03T02:59:15;18.30;1.00
20231;DHT22;10274;49.022;9.338;2022-09-03T03:01:42;18.20;1.00
20231;DHT22;10274;49.022;9.338;2022-09-03T03:04:09;18.30;1.00
20231;DHT22;10274;49.022;9.338;2022-09-03T03:06:37;18.30;1.00
20231;DHT22;10274;49.022;9.338;2022-09-03T03:09:04;18.30;1.00
20231;DHT22;10274;49.022;9.338;2022-09-03T03:11:31;18.30;1.00
20231;DHT22;10274;49.022;9.338;2022-09-03T03:13:58;18.20;1.00
20231;DHT22;10274;49.022;9.338;2022-09-03T03:16:25;18.20;1.00
20231;DHT22;10274;49.022;9.338;2022-09-03T03:18:52;18.30;1.00
20231;DHT22;10274;49.022;9.338;2022-09-03T03:21:19;18.30;1.00
20231;DHT22;10274;49.022;9.338;2022-09-03T03:23:47;18.10;1.00
20231;DHT22;10274;49.022;9.338;2022-09-03T03:26:15;18.20;1.00
20231;DHT22;10274;49.022;9.338;2022-09-03T03:28:43;18.30;1.00
20231;DHT22;10274;49.022;9.338;2022-09-03T03:31:12;18.20;1.00
20231;DHT22;10274;49.022;9.338;2022-09-03T03:33:40;18.20;1.00
20231;DHT22;10274;49.022;9.338;2022-09-03T03:36:09;18.20;1.00
20231;DHT22;10274;49.022;9.338;2022-09-03T03:38:36;18.30;1.00
20231;DHT22;10274;49.022;9.338;2022-09-03T03:41:08;18.30;1.00
20231;DHT22;10274;49.022;9.338;2022-09-03T03:43:35;18.30;1.00
20231;DHT22;10274;49.022;9.338;2022-09-03T03:46:02;18.20;1.00
20231;DHT22;10274;49.022;9.338;2022-09-03T03:48:29;18.10;5.40
20231;DHT22;10274;49.022;9.338;2022-09-03T03:50:59;18.20;9.60
20231;DHT22;10274;49.022;9.338;2022-09-03T03:53:27;18.10;14.50
20231;DHT22;10274;49.022;9.338;2022-09-03T03:55:54;18.10;14.40
20231;DHT22;10274;49.022;9.338;2022-09-03T03:58:23;18.10;18.90
20231;DHT22;10274;49.022;9.338;2022-09-03T04:00:50;18.10;20.90
20231;DHT22;10274;49.022;9.338;2022-09-03T04:03:17;18.10;24.90
20231;DHT22;10274;49.022;9.338;2022-09-03T04:05:54;18.20;24.30
20231;DHT22;10274;49.022;9.338;2022-09-03T04:08:21;18.20;24.70
20231;DHT22;10274;49.022;9.338;2022-09-03T04:10:48;18.10;29.30
20231;DHT22;10274;49.022;9.338;2022-09-03T04:13:15;18.00;57.20
20231;DHT22;10274;49.022;9.338;2022-09-03T04:15:43;17.90;80.00
20231;DHT22;10274;49.022;9.338;2022-09-03T04:18:10;17.90;99.90
20231;DHT22;10274;49.022;9.338;2022-09-03T04:20:37;18.00;99.90
20231;DHT22;10274;49.022;9.338;2022-09-03T04:23:04;17.90;99.90
20231;DHT22;10274;49.022;9.338;2022-09-03T04:25:31;17.90;99.90
20231;DHT22;10274;49.022;9.338;2022-09-03T04:27:58;17.90;99.90
20231;DHT22;10274;49.022;9.338;2022-09-03T04:30:25;17.80;99.90
20231;DHT22;10274;49.022;9.338;2022-09-03T04:32:53;17.80;99.90
20231;DHT22;10274;49.022;9.338;2022-09-03T04:35:21;17.90;99.90
20231;DHT22;10274;49.022;9.338;2022-09-03T04:37:48;17.90;99.90
20231;DHT22;10274;49.022;9.338;2022-09-03T04:40:15;17.90;99.90
20231;DHT22;10274;49.022;9.338;2022-09-03T04:42:42;17.90;99.90
20231;DHT22;10274;49.022;9.338;2022-09-03T04:45:09;17.90;99.90
20231;DHT22;10274;49.022;9.338;2022-09-03T04:47:40;17.90;99.90
20231;DHT22;10274;49.022;9.338;2022-09-03T04:50:09;17.80;99.90
20231;DHT22;10274;49.022;9.338;2022-09-03T04:52:37;17.80;99.90
20231;DHT22;10274;49.022;9.338;2022-09-03T04:55:05;17.80;99.90
20231;DHT22;10274;49.022;9.338;2022-09-03T04:57:33;17.80;99.90
20231;DHT22;10274;49.022;9.338;2022-09-03T05:00:03;17.80;99.90
20231;DHT22;10274;49.022;9.338;2022-09-03T05:02:30;17.80;99.90
20231;DHT22;10274;49.022;9.338;2022-09-03T05:04:57;17.80;99.90
20231;DHT22;10274;49.022;9.338;2022-09-03T05:07:25;17.80;99.90
20231;DHT22;10274;49.022;9.338;2022-09-03T05:10:04;17.80;99.90
20231;DHT22;10274;49.022;9.338;2022-09-03T05:12:30;17.80;99.90
20231;DHT22;10274;49.022;9.338;2022-09-03T05:14:57;17.80;99.90
20231;DHT22;10274;49.022;9.338;2022-09-03T05:17:25;17.80;99.90
20231;DHT22;10274;49.022;9.338;2022-09-03T05:19:52;17.80;99.90
20231;DHT22;10274;49.022;9.338;2022-09-03T05:22:19;17.80;99.90
20231;DHT22;10274;49.022;9.338;2022-09-03T05:24:47;17.90;99.90
20231;DHT22;10274;49.022;9.338;2022-09-03T05:27:14;17.90;99.90
20231;DHT22;10274;49.022;9.338;2022-09-03T05:29:41;17.90;99.90
20231;DHT22;10274;49.022;9.338;2022-09-03T05:32:08;17.90;99.90
20231;DHT22;10274;49.022;9.338;2022-09-03T05:34:35;17.80;99.90
20231;DHT22;10274;49.022;9.338;2022-09-03T05:37:01;17.90;99.90
20231;DHT22;10274;49.022;9.338;2022-09-03T05:39:28;17.90;99.90
20231;DHT22;10274;49.022;9.338;2022-09-03T05:41:56;17.90;99.90
20231;DHT22;10274;49.022;9.338;2022-09-03T05:44:23;17.90;99.90
20231;DHT22;10274;49.022;9.338;2022-09-03T05:46:50;17.90;99.90
20231;DHT22;10274;49.022;9.338;2022-09-03T05:49:17;18.00;99.90
20231;DHT22;10274;49.022;9.338;2022-09-03T05:51:43;18.00;99.90
20231;DHT22;10274;49.022;9.338;2022-09-03T05:54:10;18.10;99.90
20231;DHT22;10274;49.022;9.338;2022-09-03T05:56:38;18.10;99.90
20231;DHT22;10274;49.022;9.338;2022-09-03T05:59:09;18.00;99.90
20231;DHT22;10274;49.022;9.338;2022-09-03T06:01:39;18.00;99.90
20231;DHT22;10274;49.022;9.338;2022-09-03T06:04:07;18.10;99.90
20231;DHT22;10274;49.022;9.338;2022-09-03T06:06:36;18.00;99.90
20231;DHT22;10274;49.022;9.338;2022-09-03T06:09:05;18.00;99.90
20231;DHT22;10274;49.022;9.338;2022-09-03T06:11:33;18.00;99.90
20231;DHT22;10274;49.022;9.338;2022-09-03T06:14:01;18.00;99.90
20231;DHT22;10274;49.022;9.338;2022-09-03T06:16:32;18.00;1.00
20231;DHT22;10274;49.022;9.338;2022-09-03T06:18:59;18.20;1.00
20231;DHT22;10274;49.022;9.338;2022-09-03T06:21:27;18.30;1.00
20231;DHT22;10274;49.022;9.338;2022-09-03T06:23:55;18.30;1.00
20231;DHT22;10274;49.022;9.338;2022-09-03T06:26:22;18.40;1.00
20231;DHT22;10274;49.022;9.338;2022-09-03T06:28:49;18.40;1.00
20231;DHT22;10274;49.022;9.338;2022-09-03T06:31:21;18.50;1.00
20231;DHT22;10274;49.022;9.338;2022-09-03T06:33:50;18.60;1.00
20231;DHT22;10274;49.022;9.338;2022-09-03T06:36:18;18.60;1.00
20231;DHT22;10274;49.022;9.338;2022-09-03T06:38:46;18.80;1.00
20231;DHT22;10274;49.022;9.338;2022-09-03T06:41:14;18.90;1.00
20231;DHT22;10274;49.022;9.338;2022-09-03T06:43:43;18.90;1.00
20231;DHT22;10274;49.022;9.338;2022-09-03T06:46:12;19.00;1.00
20231;DHT22;10274;49.022;9.338;2022-09-03T06:48:40;19.10;1.00
20231;DHT22;10274;49.022;9.338;2022-09-03T06:51:10;19.10;1.00
20231;DHT22;10274;49.022;9.338;2022-09-03T06:53:38;19.20;1.00
20231;DHT22;10274;49.022;9.338;2022-09-03T06:56:06;19.10;1.00
20231;DHT22;10274;49.022;9.338;2022-09-03T06:58:35;19.10;1.00
20231;DHT22;10274;49.022;9.338;2022-09-03T07:01:03;19.00;1.00
20231;DHT22;10274;49.022;9.338;2022-09-03T07:03:30;19.00;1.00
20231;DHT22;10274;49.022;9.338;2022-09-03T07:06:00;19.10;1.00
20231;DHT22;10274;49.022;9.338;2022-09-03T07:08:28;19.20;1.00
20231;DHT22;10274;49.022;9.338;2022-09-03T07:10:57;19.10;1.00
20231;DHT22;10274;49.022;9.338;2022-09-03T07:13:24;19.00;1.00
20231;DHT22;10274;49.022;9.338;2022-09-03T07:15:58;19.00;1.00
20231;DHT22;10274;49.022;9.338;2022-09-03T07:18:25;19.10;1.00
20231;DHT22;10274;49.022;9.338;2022-09-03T07:20:57;19.10;1.00
20231;DHT22;10274;49.022;9.338;2022-09-03T07:23:23;19.10;1.00
20231;DHT22;10274;49.022;9.338;2022-09-03T07:25:54;19.10;1.00
20231;DHT22;10274;49.022;9.338;2022-09-03T07:28:21;19.20;1.00
20231;DHT22;10274;49.022;9.338;2022-09-03T07:30:48;19.30;1.00
20231;DHT22;10274;49.022;9.338;2022-09-03T07:33:15;19.20;1.00
20231;DHT22;10274;49.022;9.338;2022-09-03T07:35:42;19.30;1.00
20231;DHT22;10274;49.022;9.338;2022-09-03T07:38:09;19.40;1.00
20231;DHT22;10274;49.022;9.338;2022-09-03T07:40:36;19.50;1.00
20231;DHT22;10274;49.022;9.338;2022-09-03T07:43:05;19.50;1.00
20231;DHT22;10274;49.022;9.338;2022-09-03T07:45:31;19.70;1.00
20231;DHT22;10274;49.022;9.338;2022-09-03T07:47:58;20.40;1.00
20231;DHT22;10274;49.022;9.338;2022-09-03T07:50:25;21.10;99.90
20231;DHT22;10274;49.022;9.338;2022-09-03T07:52:55;21.40;99.90
20231;DHT22;10274;49.022;9.338;2022-09-03T07:55:23;21.20;99.90
20231;DHT22;10274;49.022;9.338;2022-09-03T07:57:54;21.00;99.90
20231;DHT22;10274;49.022;9.338;2022-09-03T08:00:22;20.90;99.90
20231;DHT22;10274;49.022;9.338;2022-09-03T08:02:50;20.90;99.90
20231;DHT22;10274;49.022;9.338;2022-09-03T08:05:17;20.90;99.90
20231;DHT22;10274;49.022;9.338;2022-09-03T08:07:44;20.80;99.90
20231;DHT22;10274;49.022;9.338;2022-09-03T08:10:11;20.80;99.90
20231;DHT22;10274;49.022;9.338;2022-09-03T08:12:39;20.70;99.90
20231;DHT22;10274;49.022;9.338;2022-09-03T08:15:06;20.90;99.90
20231;DHT22;10274;49.022;9.338;2022-09-03T08:17:35;20.70;99.90
20231;DHT22;10274;49.022;9.338;2022-09-03T08:20:02;20.70;99.90
20231;DHT22;10274;49.022;9.338;2022-09-03T08:22:29;20.60;99.90
20231;DHT22;10274;49.022;9.338;2022-09-03T08:24:56;20.60;99.90
20231;DHT22;10274;49.022;9.338;2022-09-03T08:27:23;20.60;99.90
20231;DHT22;10274;49.022;9.338;2022-09-03T08:29:50;20.50;99.90
20231;DHT22;10274;49.022;9.338;2022-09-03T08:32:17;20.50;99.90
20231;DHT22;10274;49.022;9.338;2022-09-03T08:34:45;20.60;99.90
20231;DHT22;10274;49.022;9.338;2022-09-03T08:37:12;20.70;99.90
20231;DHT22;10274;49.022;9.338;2022-09-03T08:39:38;20.70;99.90
20231;DHT22;10274;49.022;9.338;2022-09-03T08:42:26;20.80;99.90
20231;DHT22;10274;49.022;9.338;2022-09-03T08:44:56;21.10;99.90
20231;DHT22;10274;49.022;9.338;2022-09-03T08:47:27;21.20;99.90
20231;DHT22;10274;49.022;9.338;2022-09-03T08:49:59;22.10;99.90
20231;DHT22;10274;49.022;9.338;2022-09-03T08:52:30;22.60;99.90
20231;DHT22;10274;49.022;9.338;2022-09-03T08:55:05;22.30;99.90
20231;DHT22;10274;49.022;9.338;2022-09-03T08:57:42;22.20;99.90
20231;DHT22;10274;49.022;9.338;2022-09-03T09:00:10;22.30;99.90
20231;DHT22;10274;49.022;9.338;2022-09-03T09:02:47;22.60;99.90
20231;DHT22;10274;49.022;9.338;2022-09-03T09:05:22;22.40;99.90
20231;DHT22;10274;49.022;9.338;2022-09-03T09:07:55;22.30;99.90
20231;DHT22;10274;49.022;9.338;2022-09-03T09:10:29;22.00;99.90
20231;DHT22;10274;49.022;9.338;2022-09-03T09:13:07;21.80;99.90
20231;DHT22;10274;49.022;9.338;2022-09-03T09:15:45;21.70;99.90
20231;DHT22;10274;49.022;9.338;2022-09-03T09:18:17;21.40;99.90
20231;DHT22;10274;49.022;9.338;2022-09-03T09:20:50;21.30;99.90
20231;DHT22;10274;49.022;9.338;2022-09-03T09:23:23;21.20;99.90
20231;DHT22;10274;49.022;9.338;2022-09-03T09:25:53;21.20;99.90
20231;DHT22;10274;49.022;9.338;2022-09-03T09:28:22;21.00;99.90
20231;DHT22;10274;49.022;9.338;2022-09-03T09:30:53;21.00;1.00
20231;DHT22;10274;49.022;9.338;2022-09-03T09:33:21;20.90;99.90
20231;DHT22;10274;49.022;9.338;2022-09-03T09:35:49;20.90;99.90
20231;DHT22;10274;49.022;9.338;2022-09-03T09:38:26;20.90;99.90
20231;DHT22;10274;49.022;9.338;2022-09-03T09:40:53;21.00;1.00
20231;DHT22;10274;49.022;9.338;2022-09-03T09:43:21;21.10;1.00
20231;DHT22;10274;49.022;9.338;2022-09-03T09:45:50;21.50;1.00
20231;DHT22;10274;49.022;9.338;2022-09-03T09:48:22;21.90;1.00
20231;DHT22;10274;49.022;9.338;2022-09-03T09:51:09;23.00;1.00
20231;DHT22;10274;49.022;9.338;2022-09-03T09:53:36;23.70;1.00
20231;DHT22;10274;49.022;9.338;2022-09-03T09:56:04;24.10;1.00
20231;DHT22;10274;49.022;9.338;2022-09-03T09:58:32;25.00;1.00
20231;DHT22;10274;49.022;9.338;2022-09-03T10:01:01;25.00;1.00
20231;DHT22;10274;49.022;9.338;2022-09-03T10:03:32;25.20;1.00
20231;DHT22;10274;49.022;9.338;2022-09-03T10:06:03;25.80;1.00
20231;DHT22;10274;49.022;9.338;2022-09-03T10:09:03;26.00;99.90
20231;DHT22;10274;49.022;9.338;2022-09-03T10:11:32;25.60;99.90
20231;DHT22;10274;49.022;9.338;2022-09-03T10:14:06;25.50;99.90
20231;DHT22;10274;49.022;9.338;2022-09-03T10:16:38;25.10;99.90
20231;DHT22;10274;49.022;9.338;2022-09-03T10:19:10;26.30;99.90
20231;DHT22;10274;49.022;9.338;2022-09-03T10:21:44;25.90;99.90
20231;DHT22;10274;49.022;9.338;2022-09-03T10:24:30;25.50;99.90
20231;DHT22;10274;49.022;9.338;2022-09-03T10:27:05;25.40;99.90
20231;DHT22;10274;49.022;9.338;2022-09-03T10:29:32;25.60;99.90
20231;DHT22;10274;49.022;9.338;2022-09-03T10:32:11;25.90;99.90
20231;DHT22;10274;49.022;9.338;2022-09-03T10:34:52;25.50;99.90
20231;DHT22;10274;49.022;9.338;2022-09-03T10:37:31;25.10;99.90
20231;DHT22;10274;49.022;9.338;2022-09-03T10:40:18;25.20;99.90
20231;DHT22;10274;49.022;9.338;2022-09-03T10:43:03;26.00;99.90
20231;DHT22;10274;49.022;9.338;2022-09-03T10:45:36;26.80;99.90
20231;DHT22;10274;49.022;9.338;2022-09-03T10:48:17;26.20;99.90
20231;DHT22;10274;49.022;9.338;2022-09-03T10:50:52;26.50;99.90
20231;DHT22;10274;49.022;9.338;2022-09-03T10:53:38;26.30;99.90
20231;DHT22;10274;49.022;9.338;2022-09-03T10:56:14;25.40;99.90
20231;DHT22;10274;49.022;9.338;2022-09-03T10:58:50;25.50;1.00
20231;DHT22;10274;49.022;9.338;2022-09-03T11:01:27;26.20;99.90
20231;DHT22;10274;49.022;9.338;2022-09-03T11:04:10;27.10;99.90
20231;DHT22;10274;49.022;9.338;2022-09-03T11:06:48;27.30;1.00
20231;DHT22;10274;49.022;9.338;2022-09-03T11:09:19;27.20;99.90
20231;DHT22;10274;49.022;9.338;2022-09-03T11:11:52;27.50;99.90
20231;DHT22;10274;49.022;9.338;2022-09-03T11:14:30;27.20;99.90
20231;DHT22;10274;49.022;9.338;2022-09-03T11:17:01;27.50;99.90
20231;DHT22;10274;49.022;9.338;2022-09-03T11:19:33;27.10;99.90
20231;DHT22;10274;49.022;9.338;2022-09-03T11:22:03;27.50;99.90
20231;DHT22;10274;49.022;9.338;2022-09-03T11:24:32;27.40;99.90
20231;DHT22;10274;49.022;9.338;2022-09-03T11:27:13;27.00;99.90
20231;DHT22;10274;49.022;9.338;2022-09-03T11:29:46;27.10;26.70
20231;DHT22;10274;49.022;9.338;2022-09-03T11:32:16;27.10;9.00
20231;DHT22;10274;49.022;9.338;2022-09-03T11:34:45;27.20;12.60
20231;DHT22;10274;49.022;9.338;2022-09-03T11:37:19;27.00;1.00
20231;DHT22;10274;49.022;9.338;2022-09-03T11:39:57;26.10;1.00
20231;DHT22;10274;49.022;9.338;2022-09-03T11:42:29;26.20;1.00
20231;DHT22;10274;49.022;9.338;2022-09-03T11:45:20;26.30;1.00
20231;DHT22;10274;49.022;9.338;2022-09-03T11:47:48;26.40;1.00
20231;DHT22;10274;49.022;9.338;2022-09-03T11:50:23;26.20;1.00
20231;DHT22;10274;49.022;9.338;2022-09-03T11:52:52;25.80;1.00
20231;DHT22;10274;49.022;9.338;2022-09-03T11:55:28;25.40;1.00
20231;DHT22;10274;49.022;9.338;2022-09-03T11:58:09;25.00;1.00
20231;DHT22;10274;49.022;9.338;2022-09-03T12:00:36;25.20;1.00
20231;DHT22;10274;49.022;9.338;2022-09-03T12:03:04;25.30;1.00
20231;DHT22;10274;49.022;9.338;2022-09-03T12:05:37;25.10;1.00
20231;DHT22;10274;49.022;9.338;2022-09-03T12:11:20;24.80;1.00
20231;DHT22;10274;49.022;9.338;2022-09-03T12:13:56;24.70;1.00
20231;DHT22;10274;49.022;9.338;2022-09-03T12:16:40;24.80;1.00
20231;DHT22;10274;49.022;9.338;2022-09-03T12:19:17;24.40;1.00
20231;DHT22;10274;49.022;9.338;2022-09-03T12:21:47;23.90;1.00
20231;DHT22;10274;49.022;9.338;2022-09-03T12:24:15;24.00;1.00
20231;DHT22;10274;49.022;9.338;2022-09-03T12:26:42;23.90;1.00
20231;DHT22;10274;49.022;9.338;2022-09-03T12:29:23;23.90;1.00
20231;DHT22;10274;49.022;9.338;2022-09-03T12:31:50;23.80;1.00
20231;DHT22;10274;49.022;9.338;2022-09-03T12:34:18;23.60;1.00
20231;DHT22;10274;49.022;9.338;2022-09-03T12:36:47;23.60;1.00
20231;DHT22;10274;49.022;9.338;2022-09-03T12:39:15;23.60;1.00
20231;DHT22;10274;49.022;9.338;2022-09-03T12:41:56;23.50;1.00
20231;DHT22;10274;49.022;9.338;2022-09-03T12:44:28;23.40;1.00
20231;DHT22;10274;49.022;9.338;2022-09-03T12:47:00;23.20;1.00
20231;DHT22;10274;49.022;9.338;2022-09-03T12:49:34;23.30;1.00
20231;DHT22;10274;49.022;9.338;2022-09-03T12:52:05;23.40;1.00
20231;DHT22;10274;49.022;9.338;2022-09-03T12:54:37;23.20;1.00
20231;DHT22;10274;49.022;9.338;2022-09-03T12:57:05;23.00;1.00
20231;DHT22;10274;49.022;9.338;2022-09-03T12:59:35;22.90;1.00
20231;DHT22;10274;49.022;9.338;2022-09-03T13:02:09;22.80;1.00
20231;DHT22;10274;49.022;9.338;2022-09-03T13:04:40;22.80;1.00
20231;DHT22;10274;49.022;9.338;2022-09-03T13:07:11;22.70;1.00
20231;DHT22;10274;49.022;9.338;2022-09-03T13:09:40;22.60;1.00
20231;DHT22;10274;49.022;9.338;2022-09-03T13:12:20;22.60;1.00
20231;DHT22;10274;49.022;9.338;2022-09-03T13:14:48;22.60;8.80
20231;DHT22;10274;49.022;9.338;2022-09-03T13:17:23;22.60;1.00
20231;DHT22;10274;49.022;9.338;2022-09-03T13:20:04;22.80;1.00
20231;DHT22;10274;49.022;9.338;2022-09-03T13:22:41;22.70;1.00
20231;DHT22;10274;49.022;9.338;2022-09-03T13:25:15;22.70;1.00
20231;DHT22;10274;49.022;9.338;2022-09-03T13:27:53;22.60;1.00
20231;DHT22;10274;49.022;9.338;2022-09-03T13:30:33;22.70;1.00
20231;DHT22;10274;49.022;9.338;2022-09-03T13:33:08;22.70;1.00
20231;DHT22;10274;49.022;9.338;2022-09-03T13:35:38;22.70;1.00
20231;DHT22;10274;49.022;9.338;2022-09-03T13:38:24;22.80;1.00
20231;DHT22;10274;49.022;9.338;2022-09-03T13:40:56;22.70;1.00
20231;DHT22;10274;49.022;9.338;2022-09-03T13:43:31;22.30;26.90
20231;DHT22;10274;49.022;9.338;2022-09-03T13:46:06;22.00;99.90
20231;DHT22;10274;49.022;9.338;2022-09-03T13:48:35;21.90;99.90
20231;DHT22;10274;49.022;9.338;2022-09-03T13:51:24;21.90;1.00
20231;DHT22;10274;49.022;9.338;2022-09-03T13:54:04;22.00;1.00
20231;DHT22;10274;49.022;9.338;2022-09-03T13:56:43;22.00;99.90
20231;DHT22;10274;49.022;9.338;2022-09-03T13:59:19;22.30;99.90
20231;DHT22;10274;49.022;9.338;2022-09-03T14:02:05;22.60;99.90
20231;DHT22;10274;49.022;9.338;2022-09-03T14:04:42;22.80;92.10
20231;DHT22;10274;49.022;9.338;2022-09-03T14:07:14;24.00;1.00
20231;DHT22;10274;49.022;9.338;2022-09-03T14:09:47;24.20;1.00
20231;DHT22;10274;49.022;9.338;2022-09-03T14:12:20;24.00;1.00
20231;DHT22;10274;49.022;9.338;2022-09-03T14:14:54;23.20;1.00
20231;DHT22;10274;49.022;9.338;2022-09-03T14:17:31;22.60;99.90
20231;DHT22;10274;49.022;9.338;2022-09-03T14:20:05;22.30;1.00
20231;DHT22;10274;49.022;9.338;2022-09-03T14:22:43;22.10;16.80
20231;DHT22;10274;49.022;9.338;2022-09-03T14:25:15;21.80;1.00
20231;DHT22;10274;49.022;9.338;2022-09-03T14:27:42;21.50;1.00
20231;DHT22;10274;49.022;9.338;2022-09-03T14:30:18;21.30;1.00
20231;DHT22;10274;49.022;9.338;2022-09-03T14:32:52;21.40;99.90
20231;DHT22;10274;49.022;9.338;2022-09-03T14:35:34;21.00;1.00
20231;DHT22;10274;49.022;9.338;2022-09-03T14:38:35;20.80;99.90
20231;DHT22;10274;49.022;9.338;2022-09-03T14:41:21;20.90;99.90
20231;DHT22;10274;49.022;9.338;2022-09-03T14:44:33;20.90;99.90
20231;DHT22;10274;49.022;9.338;2022-09-03T14:47:14;20.70;1.00
20231;DHT22;10274;49.022;9.338;2022-09-03T14:49:58;20.80;1.00
20231;DHT22;10274;49.022;9.338;2022-09-03T14:52:41;20.80;1.00
20231;DHT22;10274;49.022;9.338;2022-09-03T14:55:44;21.00;1.00
20231;DHT22;10274;49.022;9.338;2022-09-03T14:58:38;21.00;1.00
20231;DHT22;10274;49.022;9.338;2022-09-03T15:01:11;20.90;1.00
20231;DHT22;10274;49.022;9.338;2022-09-03T15:06:45;20.80;99.90
20231;DHT22;10274;49.022;9.338;2022-09-03T15:09:24;20.80;1.00
20231;DHT22;10274;49.022;9.338;2022-09-03T15:11:55;20.70;1.00
20231;DHT22;10274;49.022;9.338;2022-09-03T15:14:29;20.60;1.00
20231;DHT22;10274;49.022;9.338;2022-09-03T15:17:05;20.50;1.00
20231;DHT22;10274;49.022;9.338;2022-09-03T15:19:53;20.30;99.90
20231;DHT22;10274;49.022;9.338;2022-09-03T15:22:41;20.20;1.00
20231;DHT22;10274;49.022;9.338;2022-09-03T15:25:18;20.30;1.00
20231;DHT22;10274;49.022;9.338;2022-09-03T15:27:58;20.30;1.00
20231;DHT22;10274;49.022;9.338;2022-09-03T15:30:34;20.30;99.90
20231;DHT22;10274;49.022;9.338;2022-09-03T15:33:12;20.30;99.90
20231;DHT22;10274;49.022;9.338;2022-09-03T15:36:00;20.30;99.90
20231;DHT22;10274;49.022;9.338;2022-09-03T15:38:39;20.30;99.90
20231;DHT22;10274;49.022;9.338;2022-09-03T15:41:16;20.20;99.90
20231;DHT22;10274;49.022;9.338;2022-09-03T15:43:48;20.20;1.00
20231;DHT22;10274;49.022;9.338;2022-09-03T15:46:36;20.00;34.80
20231;DHT22;10274;49.022;9.338;2022-09-03T15:49:08;20.10;99.90
20231;DHT22;10274;49.022;9.338;2022-09-03T15:51:50;20.10;1.00
20231;DHT22;10274;49.022;9.338;2022-09-03T15:54:31;19.90;22.10
20231;DHT22;10274;49.022;9.338;2022-09-03T15:57:04;19.90;1.00
20231;DHT22;10274;49.022;9.338;2022-09-03T15:59:39;19.90;1.00
20231;DHT22;10274;49.022;9.338;2022-09-03T16:02:09;19.90;1.00
20231;DHT22;10274;49.022;9.338;2022-09-03T16:04:49;20.10;1.00
20231;DHT22;10274;49.022;9.338;2022-09-03T16:07:22;20.00;1.00
20231;DHT22;10274;49.022;9.338;2022-09-03T16:10:03;20.10;1.00
20231;DHT22;10274;49.022;9.338;2022-09-03T16:12:36;20.10;1.00
20231;DHT22;10274;49.022;9.338;2022-09-03T16:15:10;20.20;1.00
20231;DHT22;10274;49.022;9.338;2022-09-03T16:17:50;20.10;1.00
20231;DHT22;10274;49.022;9.338;2022-09-03T16:20:21;19.90;1.00
20231;DHT22;10274;49.022;9.338;2022-09-03T16:22:55;19.80;1.00
20231;DHT22;10274;49.022;9.338;2022-09-03T16:25:28;19.70;1.00